Time;durP1;ratioP1;P1;durP2;ratioP2;P2;SDS_P1;SDS_P2;PMS_P1;PMS_P2;Temp;Humidity;BMP_temperature;BMP_pressure;BME280_temperature;BME280_humidity;BME280_pressure;Samples;Min_cycle;Max_cycle;Signal;HPM_P1;HPM_P2
2023/03/10 18:24:24;;;;;;;77.40;38.80;;;;;;;9.49;78.39;96554.75;106244;1302;545082;-29
2023/03/10 18:26:50;;;;;;;72.00;39.30;;;;;;;9.46;78.39;96553.70;106502;1288;22882;-27
2023/03/10 18:29:15;;;;;;;69.60;37.80;;;;;;;9.43;78.38;96550.10;106951;1305;22565;-27
2023/03/10 18:31:41;;;;;;;73.90;40.50;;;;;;;9.40;77.84;96548.24;106796;1302;22578;-27
2023/03/10 18:34:06;;;;;;;73.10;38.40;;;;;;;9.38;78.39;96542.48;106785;1303;22579;-24
2023/03/10 18:36:32;;;;;;;64.60;36.00;;;;;;;9.38;78.89;96542.21;106764;1309;22577;-26
2023/03/10 18:38:58;;;;;;;69.10;38.00;;;;;;;9.37;78.82;96541.05;106970;1299;186327;-25
2023/03/10 18:41:26;;;;;;;60.10;33.50;;;;;;;9.37;78.72;96536.34;107014;1305;22599;-29
2023/03/10 18:43:52;;;;;;;60.10;32.60;;;;;;;9.38;79.03;96538.31;106977;1302;22560;-27
2023/03/10 18:46:19;;;;;;;61.70;32.70;;;;;;;9.38;79.07;96532.48;106949;1307;22700;-25
2023/03/10 18:48:44;;;;;;;47.80;26.60;;;;;;;9.40;79.16;96531.27;106932;1305;22604;-26
2023/03/10 18:51:11;;;;;;;46.70;25.20;;;;;;;9.41;79.57;96527.67;107113;1305;23100;-24
2023/03/10 18:53:38;;;;;;;51.20;28.10;;;;;;;9.42;79.56;96521.18;106945;1299;22536;-28
2023/03/10 18:56:04;;;;;;;56.70;27.50;;;;;;;9.41;79.75;96520.71;106999;1307;22557;-33
2023/03/10 18:58:29;;;;;;;47.90;25.60;;;;;;;9.43;79.67;96511.27;106906;1305;22562;-23
2023/03/10 19:00:55;;;;;;;48.30;26.00;;;;;;;9.46;79.44;96512.77;106934;1305;22591;-28
2023/03/10 19:03:21;;;;;;;45.40;24.80;;;;;;;9.48;79.45;96502.44;106927;1308;22634;-26
2023/03/10 19:05:56;;;;;;;48.10;26.80;;;;;;;9.47;79.84;96500.29;106860;1308;22553;-25
2023/03/10 19:08:21;;;;;;;47.90;25.60;;;;;;;9.44;79.86;96494.75;106912;1308;22575;-24
2023/03/10 19:10:55;;;;;;;50.10;24.30;;;;;;;9.42;79.54;96492.63;106918;1308;22662;-26
2023/03/10 19:13:22;;;;;;;48.70;26.10;;;;;;;9.40;79.58;96491.11;106943;1308;22566;-27
2023/03/10 19:15:48;;;;;;;50.10;25.40;;;;;;;9.38;79.62;96488.70;106946;1308;24424;-27
2023/03/10 19:18:13;;;;;;;50.50;25.20;;;;;;;9.36;79.62;96483.09;106953;1308;24234;-25
2023/03/10 19:20:38;;;;;;;47.30;25.00;;;;;;;9.33;79.81;96480.04;106913;1308;22584;-27
2023/03/10 19:23:03;;;;;;;46.90;25.00;;;;;;;9.30;79.61;96489.21;106954;1308;24269;-24
2023/03/10 19:25:29;;;;;;;45.50;23.30;;;;;;;9.29;79.64;96489.69;106939;1308;22551;-23
2023/03/10 19:27:54;;;;;;;48.50;23.20;;;;;;;9.28;79.64;96493.25;106936;1308;22573;-26
2023/03/10 19:30:20;;;;;;;44.90;23.00;;;;;;;9.28;79.58;96496.64;106929;1308;22565;-25
2023/03/10 19:32:46;;;;;;;44.90;23.60;;;;;;;9.28;79.84;96494.73;106947;1308;22725;-23
2023/03/10 19:35:12;;;;;;;47.70;24.80;;;;;;;9.28;79.96;96492.27;106913;1308;22581;-24
2023/03/10 19:37:42;;;;;;;51.70;26.40;;;;;;;9.26;79.90;96488.60;106918;1308;22582;-26
2023/03/10 19:40:13;;;;;;;48.90;25.00;;;;;;;9.24;80.00;96486.29;106932;1308;22563;-30
2023/03/10 19:42:39;;;;;;;46.50;24.40;;;;;;;9.24;79.73;96484.39;106964;1308;22585;-27
2023/03/10 19:45:07;;;;;;;40.30;21.50;;;;;;;9.24;79.73;96484.05;106869;1308;22552;-26
2023/03/10 19:47:32;;;;;;;38.00;20.60;;;;;;;9.23;79.81;96480.25;106913;1308;22559;-25
2023/03/10 19:49:58;;;;;;;34.70;19.90;;;;;;;9.23;79.70;96477.30;106901;1308;24754;-27
2023/03/10 19:52:24;;;;;;;34.50;19.20;;;;;;;9.25;79.43;96467.55;106885;1308;22559;-25
2023/03/10 19:54:50;;;;;;;34.60;18.50;;;;;;;9.24;79.48;96465.18;106902;1308;26266;-26
2023/03/10 19:57:15;;;;;;;38.90;17.50;;;;;;;9.27;79.25;96465.11;106905;1308;22604;-23
2023/03/10 19:59:41;;;;;;;34.30;18.40;;;;;;;9.28;79.30;96460.41;106912;1308;22563;-23
2023/03/10 20:02:12;;;;;;;38.40;19.60;;;;;;;9.31;79.22;96454.23;106895;1308;22586;-25
2023/03/10 20:04:37;;;;;;;38.30;19.60;;;;;;;9.33;79.23;96451.09;106904;1308;22575;-26
2023/03/10 20:07:03;;;;;;;37.20;19.20;;;;;;;9.34;79.10;96451.46;106972;1307;22603;-29
2023/03/10 20:09:29;;;;;;;43.80;18.90;;;;;;;9.36;78.91;96450.59;106939;1307;22561;-28
2023/03/10 20:11:55;;;;;;;35.60;18.90;;;;;;;9.38;78.84;96448.16;106974;1307;22558;-26
2023/03/10 20:14:22;;;;;;;40.20;22.40;;;;;;;9.41;78.84;96442.92;106988;1307;22679;-28
2023/03/10 20:16:48;;;;;;;46.20;24.10;;;;;;;9.40;79.03;96439.14;107025;1307;22558;-27
2023/03/10 20:19:13;;;;;;;37.80;20.40;;;;;;;9.42;79.02;96437.21;106946;1307;22610;-26
2023/03/10 20:21:40;;;;;;;43.40;21.10;;;;;;;9.43;79.12;96432.09;106952;1307;22567;-26
2023/03/10 20:24:06;;;;;;;41.10;19.50;;;;;;;9.43;79.17;96428.36;106958;1307;22558;-28
2023/03/10 20:26:32;;;;;;;41.30;20.60;;;;;;;9.43;79.37;96424.08;107050;1307;22546;-32
2023/03/10 20:28:58;;;;;;;35.60;20.20;;;;;;;9.44;79.30;96419.92;106999;1307;22665;-31
2023/03/10 20:31:24;;;;;;;39.40;19.20;;;;;;;9.44;79.42;96416.29;106945;1307;22692;-32
2023/03/10 20:33:51;;;;;;;42.30;22.70;;;;;;;9.44;79.28;96411.54;106957;1307;22563;-30
2023/03/10 20:36:17;;;;;;;42.40;22.70;;;;;;;9.42;79.32;96406.80;106937;1307;22576;-31
2023/03/10 20:38:43;;;;;;;46.30;20.30;;;;;;;9.42;79.23;96402.08;106976;1307;25467;-32
2023/03/10 20:41:14;;;;;;;51.60;23.80;;;;;;;9.40;79.42;96402.81;106962;1307;22563;-28
2023/03/10 20:43:41;;;;;;;47.30;24.70;;;;;;;9.38;79.45;96401.80;106933;1307;22730;-28
2023/03/10 20:46:07;;;;;;;52.20;26.20;;;;;;;9.37;79.52;96403.63;106955;1307;22575;-30
2023/03/10 20:48:33;;;;;;;46.80;25.80;;;;;;;9.38;79.73;96413.48;106930;1307;24231;-29
2023/03/10 20:51:00;;;;;;;43.60;22.00;;;;;;;9.37;79.82;96426.81;106918;1307;25436;-28
2023/03/10 20:53:26;;;;;;;36.90;20.50;;;;;;;9.36;79.83;96429.41;106953;1307;22571;-32
2023/03/10 20:55:52;;;;;;;42.10;22.10;;;;;;;9.33;80.75;96424.40;107016;1308;22563;-29
2023/03/10 20:58:17;;;;;;;38.00;20.70;;;;;;;9.26;82.70;96427.71;107000;1308;22567;-27
2023/03/10 21:00:46;;;;;;;40.30;20.80;;;;;;;9.20;82.96;96420.39;106956;1308;22575;-27
2023/03/10 21:03:12;;;;;;;38.80;20.40;;;;;;;9.15;83.58;96420.05;106955;1308;22563;-28
2023/03/10 21:05:37;;;;;;;36.70;17.60;;;;;;;9.08;84.96;96413.73;106961;1308;22560;-27
2023/03/10 21:08:03;;;;;;;37.60;22.70;;;;;;;9.02;85.83;96420.55;106937;1308;22558;-26
2023/03/10 21:10:28;;;;;;;38.80;19.50;;;;;;;9.02;85.19;96416.40;106971;1308;22553;-30
2023/03/10 21:12:53;;;;;;;36.50;19.00;;;;;;;8.98;86.72;96401.05;106941;1285;22570;-25
2023/03/10 21:15:19;;;;;;;35.50;17.60;;;;;;;8.96;86.60;96401.94;106938;1308;22570;-27
2023/03/10 21:17:45;;;;;;;38.40;18.60;;;;;;;8.95;87.44;96403.45;106943;1308;22574;-27
2023/03/10 21:20:15;;;;;;;33.80;17.80;;;;;;;8.91;88.64;96399.25;106994;1308;22567;-27
2023/03/10 21:22:41;;;;;;;36.00;17.50;;;;;;;8.89;88.10;96398.21;106972;1308;22579;-27
2023/03/10 21:25:11;;;;;;;29.20;15.80;;;;;;;8.85;88.92;96396.30;106938;1308;22548;-29
2023/03/10 21:27:37;;;;;;;37.20;16.40;;;;;;;8.81;89.41;96397.23;106966;1308;22555;-27
2023/03/10 21:30:08;;;;;;;31.50;15.00;;;;;;;8.77;89.86;96394.10;106960;1308;22600;-25
2023/03/10 21:32:34;;;;;;;28.60;15.40;;;;;;;8.73;89.70;96400.27;106964;1308;23250;-28
2023/03/10 21:34:59;;;;;;;28.30;13.60;;;;;;;8.69;90.38;96398.52;106983;1308;22569;-30
